Time;durP1;ratioP1;P1;durP2;ratioP2;P2;SDS_P1;SDS_P2;PMS_P1;PMS_P2;Temp;Humidity;BMP_temperature;BMP_pressure;BME280_temperature;BME280_humidity;BME280_pressure;Samples;Min_cycle;Max_cycle;Signal;HPM_P1;HPM_P2
2023/05/16 00:00:40;;;;;;;15.43;7.80;;;;;;;;;;5001364;28;20037;-77
2023/05/16 00:03:06;;;;;;;48.00;9.40;;;;;;;;;;5057858;23;20156;-82
2023/05/16 00:05:31;;;;;;;13.02;8.10;;;;;;;;;;5040109;28;20087;-83
2023/05/16 00:07:56;;;;;;;13.63;8.63;;;;;;;;;;5040991;28;20034;-82
2023/05/16 00:10:22;;;;;;;12.90;8.07;;;;;;;;;;5041199;28;20467;-82
2023/05/16 00:12:50;;;;;;;11.02;7.53;;;;;;;;;;5040619;28;20040;-81
2023/05/16 00:15:16;;;;;;;13.52;7.80;;;;;;;;;;5041654;28;20432;-82
2023/05/16 00:17:45;;;;;;;13.88;7.78;;;;;;;;;;5042448;28;20072;-82
2023/05/16 00:20:13;;;;;;;10.13;7.28;;;;;;;;;;5022447;28;20026;-82
2023/05/16 00:22:39;;;;;;;11.13;6.78;;;;;;;;;;5039484;28;20097;-82
2023/05/16 00:25:05;;;;;;;18.98;7.30;;;;;;;;;;5040632;28;20088;-82
2023/05/16 00:27:32;;;;;;;16.35;7.68;;;;;;;;;;5026300;28;20065;-82
2023/05/16 00:29:58;;;;;;;13.10;7.93;;;;;;;;;;5036853;28;20048;-82
2023/05/16 00:32:23;;;;;;;13.00;8.30;;;;;;;;;;5040498;28;20029;-82
2023/05/16 00:34:48;;;;;;;15.25;7.72;;;;;;;;;;5040499;28;20063;-82
2023/05/16 00:37:14;;;;;;;13.30;7.93;;;;;;;;;;5040375;28;20035;-82
2023/05/16 00:39:39;;;;;;;10.68;6.88;;;;;;;;;;5041721;28;20033;-82
2023/05/16 00:42:05;;;;;;;10.98;7.13;;;;;;;;;;5040625;28;20107;-82
2023/05/16 00:44:30;;;;;;;12.60;7.38;;;;;;;;;;5038872;28;20025;-82
2023/05/16 00:46:56;;;;;;;9.15;6.40;;;;;;;;;;5040043;28;20026;-82
2023/05/16 00:49:21;;;;;;;11.05;6.68;;;;;;;;;;5040192;28;20179;-81
2023/05/16 00:51:47;;;;;;;11.00;6.28;;;;;;;;;;5024959;28;20077;-83
2023/05/16 00:54:12;;;;;;;11.00;6.55;;;;;;;;;;5021517;28;20047;-82
2023/05/16 00:56:37;;;;;;;11.98;6.43;;;;;;;;;;5021424;28;20053;-81
2023/05/16 00:59:03;;;;;;;10.27;7.05;;;;;;;;;;5019623;28;20041;-82
2023/05/16 01:01:29;;;;;;;10.75;6.43;;;;;;;;;;5019970;28;20026;-83
2023/05/16 01:03:54;;;;;;;11.38;5.82;;;;;;;;;;5020390;28;20503;-81
2023/05/16 01:06:20;;;;;;;9.00;6.40;;;;;;;;;;5020355;28;20033;-81
2023/05/16 01:08:45;;;;;;;9.48;6.07;;;;;;;;;;5022083;28;20079;-82
2023/05/16 01:11:29;;;;;;;8.40;6.47;;;;;;;;;;5021391;28;20034;-82
2023/05/16 01:14:18;;;;;;;13.02;7.97;;;;;;;;;;5022575;28;20494;-82
2023/05/16 01:17:17;;;;;;;12.73;7.35;;;;;;;;;;5021455;28;20042;-82
2023/05/16 01:19:52;;;;;;;13.60;7.68;;;;;;;;;;5015592;28;20045;-82
2023/05/16 01:22:30;;;;;;;11.05;6.93;;;;;;;;;;5020557;28;20034;-82
2023/05/16 01:25:17;;;;;;;9.25;6.85;;;;;;;;;;5020876;28;20069;-82
2023/05/16 01:27:44;;;;;;;9.45;6.07;;;;;;;;;;5027276;28;20090;-82
2023/05/16 01:30:14;;;;;;;9.70;6.32;;;;;;;;;;5040949;28;20032;-82
2023/05/16 01:32:40;;;;;;;8.68;6.25;;;;;;;;;;5042568;28;20049;-82
2023/05/16 01:35:07;;;;;;;9.55;5.90;;;;;;;;;;5025231;28;20041;-82
2023/05/16 01:37:39;;;;;;;10.45;5.03;;;;;;;;;;5021486;28;20060;-82
2023/05/16 01:40:15;;;;;;;11.57;5.72;;;;;;;;;;5020936;28;20033;-81
2023/05/16 01:42:43;;;;;;;9.88;5.70;;;;;;;;;;5021417;28;20048;-82
2023/05/16 01:45:14;;;;;;;8.75;6.03;;;;;;;;;;5021177;28;20109;-83
2023/05/16 01:47:44;;;;;;;9.82;6.50;;;;;;;;;;5022036;28;20105;-82
2023/05/16 01:50:13;;;;;;;7.90;5.95;;;;;;;;;;5021926;28;20057;-82
2023/05/16 01:52:41;;;;;;;10.52;6.90;;;;;;;;;;5021253;28;20038;-82
2023/05/16 01:55:15;;;;;;;11.05;7.32;;;;;;;;;;5020474;28;20030;-81
2023/05/16 01:57:41;;;;;;;11.07;7.60;;;;;;;;;;5037786;28;20033;-81
2023/05/16 02:00:07;;;;;;;11.55;7.43;;;;;;;;;;5040741;28;20025;-81
2023/05/16 02:02:33;;;;;;;11.30;7.25;;;;;;;;;;5041117;28;20037;-82
2023/05/16 02:04:58;;;;;;;12.93;7.40;;;;;;;;;;5040031;28;20403;-83
2023/05/16 02:07:23;;;;;;;13.93;7.90;;;;;;;;;;5041504;28;20084;-82
2023/05/16 02:09:49;;;;;;;15.18;7.78;;;;;;;;;;5040858;28;20021;-82
2023/05/16 02:12:15;;;;;;;16.15;8.30;;;;;;;;;;5040464;28;20112;-82
2023/05/16 02:14:43;;;;;;;14.57;8.95;;;;;;;;;;5041548;28;20036;-82
2023/05/16 02:17:08;;;;;;;13.32;8.30;;;;;;;;;;5040857;28;20026;-82
2023/05/16 02:19:33;;;;;;;13.45;7.65;;;;;;;;;;5041801;28;20034;-82
2023/05/16 02:21:59;;;;;;;12.02;7.60;;;;;;;;;;5041153;28;20041;-82
2023/05/16 02:24:24;;;;;;;15.38;7.22;;;;;;;;;;5041397;28;20040;-82
2023/05/16 02:26:49;;;;;;;14.40;7.30;;;;;;;;;;5041633;28;20083;-82
2023/05/16 02:29:15;;;;;;;10.88;6.85;;;;;;;;;;5041298;28;20092;-82
2023/05/16 02:31:41;;;;;;;14.18;7.90;;;;;;;;;;5040854;28;20068;-82
2023/05/16 02:34:07;;;;;;;13.25;7.85;;;;;;;;;;5040781;28;20025;-82
2023/05/16 02:36:34;;;;;;;15.07;8.15;;;;;;;;;;5040691;28;20033;-82
2023/05/16 02:39:00;;;;;;;11.10;6.78;;;;;;;;;;5040483;28;20026;-82
2023/05/16 02:41:26;;;;;;;10.43;7.18;;;;;;;;;;5040528;28;20062;-82
2023/05/16 02:43:51;;;;;;;12.25;8.02;;;;;;;;;;5040868;28;20056;-82
2023/05/16 02:46:32;;;;;;;13.95;8.65;;;;;;;;;;5042491;28;20025;-82
2023/05/16 02:48:58;;;;;;;12.68;7.97;;;;;;;;;;5042948;28;20022;-82
2023/05/16 02:51:25;;;;;;;16.02;8.30;;;;;;;;;;5042136;28;20034;-82
2023/05/16 02:53:51;;;;;;;13.13;7.35;;;;;;;;;;5040447;28;20029;-82
2023/05/16 02:56:17;;;;;;;16.75;7.78;;;;;;;;;;5041644;28;20030;-82
2023/05/16 02:58:45;;;;;;;8.95;7.10;;;;;;;;;;5040008;28;20034;-82
2023/05/16 03:01:10;;;;;;;12.80;6.90;;;;;;;;;;5041023;28;20045;-82
2023/05/16 03:03:36;;;;;;;16.50;7.28;;;;;;;;;;5040648;28;20030;-82
2023/05/16 03:06:02;;;;;;;10.88;7.43;;;;;;;;;;5041400;28;20052;-82
2023/05/16 03:08:27;;;;;;;17.05;8.20;;;;;;;;;;5043925;28;20041;-82
2023/05/16 03:10:52;;;;;;;9.80;6.45;;;;;;;;;;5043650;28;20116;-82
2023/05/16 03:13:18;;;;;;;18.02;7.88;;;;;;;;;;5043355;28;20029;-82
2023/05/16 03:15:43;;;;;;;13.15;7.38;;;;;;;;;;5050632;28;20045;-81
2023/05/16 03:18:09;;;;;;;14.32;7.47;;;;;;;;;;5057962;28;20056;-80
2023/05/16 03:20:34;;;;;;;12.13;8.23;;;;;;;;;;5058418;28;20085;-81
2023/05/16 03:22:59;;;;;;;14.13;7.68;;;;;;;;;;5058515;28;20026;-80
2023/05/16 03:25:25;;;;;;;13.00;7.63;;;;;;;;;;5058127;28;20072;-81
2023/05/16 03:27:51;;;;;;;11.45;7.45;;;;;;;;;;5057996;28;20056;-82
2023/05/16 03:30:18;;;;;;;15.00;7.85;;;;;;;;;;5058867;28;20039;-80
2023/05/16 03:32:44;;;;;;;22.58;8.18;;;;;;;;;;5058346;28;20052;-81
2023/05/16 03:35:10;;;;;;;13.32;7.97;;;;;;;;;;5058039;28;20041;-80
2023/05/16 03:37:36;;;;;;;14.95;8.25;;;;;;;;;;5057979;28;20052;-80
2023/05/16 03:40:04;;;;;;;14.15;7.55;;;;;;;;;;5058010;28;20030;-80
2023/05/16 03:42:31;;;;;;;27.52;8.32;;;;;;;;;;5054282;28;20046;-82
2023/05/16 03:44:56;;;;;;;43.38;22.55;;;;;;;;;;5052597;28;20037;-82
2023/05/16 03:47:22;;;;;;;43.22;22.67;;;;;;;;;;5042204;28;20041;-83
2023/05/16 03:49:47;;;;;;;30.85;15.30;;;;;;;;;;5041950;28;20032;-82
2023/05/16 03:52:12;;;;;;;17.13;10.10;;;;;;;;;;5043449;28;20113;-82
2023/05/16 03:54:37;;;;;;;18.83;11.13;;;;;;;;;;5042633;28;20041;-82
2023/05/16 03:57:03;;;;;;;19.80;10.52;;;;;;;;;;5043500;28;20029;-82
2023/05/16 03:59:28;;;;;;;18.17;10.05;;;;;;;;;;5043544;28;20021;-82
2023/05/16 04:01:53;;;;;;;18.50;10.27;;;;;;;;;;5043775;28;20436;-82
2023/05/16 04:04:19;;;;;;;13.27;8.82;;;;;;;;;;5041947;28;20034;-81
2023/05/16 04:06:45;;;;;;;15.15;9.23;;;;;;;;;;5042054;28;20211;-82
2023/05/16 04:09:10;;;;;;;22.10;8.98;;;;;;;;;;5042686;28;20039;-82
2023/05/16 04:11:37;;;;;;;16.48;7.60;;;;;;;;;;5042218;28;20071;-82
2023/05/16 04:14:02;;;;;;;17.23;8.57;;;;;;;;;;5042118;28;20368;-82
2023/05/16 04:16:28;;;;;;;16.27;8.98;;;;;;;;;;5042741;28;20120;-81
2023/05/16 04:18:55;;;;;;;13.65;8.40;;;;;;;;;;5040965;28;20034;-83
2023/05/16 04:21:20;;;;;;;14.68;8.80;;;;;;;;;;5042581;28;20048;-82
2023/05/16 04:23:45;;;;;;;19.90;8.95;;;;;;;;;;5042481;28;20545;-82
2023/05/16 04:26:11;;;;;;;16.92;10.57;;;;;;;;;;5041636;28;20036;-82
2023/05/16 04:28:37;;;;;;;19.88;11.05;;;;;;;;;;5040889;28;20041;-83
2023/05/16 04:31:02;;;;;;;23.05;10.82;;;;;;;;;;5040824;28;20025;-82
2023/05/16 04:33:27;;;;;;;17.67;9.52;;;;;;;;;;5040444;28;20429;-82
2023/05/16 04:35:57;;;;;;;21.58;10.75;;;;;;;;;;5040593;28;20036;-83
2023/05/16 04:38:22;;;;;;;25.35;10.52;;;;;;;;;;5041380;28;20116;-83
2023/05/16 04:40:49;;;;;;;21.15;10.18;;;;;;;;;;5040320;28;20107;-82
2023/05/16 04:43:15;;;;;;;16.92;9.52;;;;;;;;;;5040100;28;20025;-82
2023/05/16 04:45:41;;;;;;;22.50;11.23;;;;;;;;;;5041380;28;20239;-83
2023/05/16 04:48:07;;;;;;;22.48;10.73;;;;;;;;;;5031319;28;20060;-83
2023/05/16 04:50:32;;;;;;;21.85;10.25;;;;;;;;;;5040956;28;20021;-83
2023/05/16 04:52:57;;;;;;;24.23;11.27;;;;;;;;;;5039096;28;20063;-83
2023/05/16 04:55:23;;;;;;;30.48;11.63;;;;;;;;;;5039026;28;20461;-82
2023/05/16 04:57:48;;;;;;;23.65;12.30;;;;;;;;;;5040459;28;20022;-83
2023/05/16 05:00:15;;;;;;;32.35;12.60;;;;;;;;;;5039940;28;20044;-83
2023/05/16 05:02:40;;;;;;;25.98;13.23;;;;;;;;;;5040834;28;20037;-83
2023/05/16 05:05:07;;;;;;;26.20;12.40;;;;;;;;;;5040223;28;20052;-83
2023/05/16 05:07:33;;;;;;;21.33;11.20;;;;;;;;;;5039982;28;20120;-82
2023/05/16 05:09:58;;;;;;;13.27;9.02;;;;;;;;;;5040158;28;20082;-83
2023/05/16 05:12:24;;;;;;;12.00;8.60;;;;;;;;;;5039831;28;20040;-83
2023/05/16 05:14:50;;;;;;;13.50;7.20;;;;;;;;;;5040518;28;20030;-82
2023/05/16 05:17:16;;;;;;;14.20;8.85;;;;;;;;;;5041367;28;20037;-83
2023/05/16 05:19:41;;;;;;;17.88;9.43;;;;;;;;;;5040276;28;20026;-82
2023/05/16 05:22:06;;;;;;;16.45;10.82;;;;;;;;;;5040340;28;20052;-82
2023/05/16 05:24:32;;;;;;;14.93;9.55;;;;;;;;;;5039463;28;20480;-82
2023/05/16 05:26:57;;;;;;;14.60;8.82;;;;;;;;;;5050387;28;20490;-81
2023/05/16 05:29:22;;;;;;;14.25;8.98;;;;;;;;;;5041852;28;20037;-81
2023/05/16 05:31:47;;;;;;;13.27;8.88;;;;;;;;;;5038234;28;20042;-83
2023/05/16 05:34:13;;;;;;;20.92;11.07;;;;;;;;;;5038533;28;20052;-82
2023/05/16 05:36:38;;;;;;;25.10;12.07;;;;;;;;;;5027075;28;20383;-81
2023/05/16 05:39:04;;;;;;;22.58;12.05;;;;;;;;;;5019063;28;20032;-82
2023/05/16 05:41:29;;;;;;;27.50;12.85;;;;;;;;;;5017935;28;20238;-83
2023/05/16 05:43:55;;;;;;;28.60;12.88;;;;;;;;;;5017953;28;20076;-82
2023/05/16 05:46:20;;;;;;;22.67;11.75;;;;;;;;;;5018128;28;20084;-82
2023/05/16 05:48:45;;;;;;;20.48;12.68;;;;;;;;;;5018785;28;20057;-83
2023/05/16 05:51:13;;;;;;;27.70;15.93;;;;;;;;;;5019512;28;20053;-82
2023/05/16 05:53:39;;;;;;;22.48;12.65;;;;;;;;;;5018021;28;20026;-83
2023/05/16 05:56:04;;;;;;;20.02;12.27;;;;;;;;;;5017765;28;20120;-83
2023/05/16 05:58:29;;;;;;;21.70;13.50;;;;;;;;;;5036037;28;20040;-83
2023/05/16 06:00:54;;;;;;;25.60;13.80;;;;;;;;;;5039625;28;20030;-83
2023/05/16 06:03:20;;;;;;;30.90;13.02;;;;;;;;;;5037370;28;20053;-83
2023/05/16 06:05:46;;;;;;;19.02;12.55;;;;;;;;;;5038943;28;20029;-82
2023/05/16 06:08:11;;;;;;;18.05;11.75;;;;;;;;;;5037938;28;20116;-82
2023/05/16 06:10:37;;;;;;;24.25;14.07;;;;;;;;;;5037660;28;20073;-83
2023/05/16 06:13:02;;;;;;;21.05;13.85;;;;;;;;;;5038499;28;20511;-82
2023/05/16 06:15:27;;;;;;;23.05;14.15;;;;;;;;;;5038278;28;20029;-82
2023/05/16 06:17:53;;;;;;;20.55;13.65;;;;;;;;;;5039123;28;20029;-83
2023/05/16 06:20:18;;;;;;;24.50;13.98;;;;;;;;;;5038398;28;20456;-82
2023/05/16 06:22:43;;;;;;;24.08;13.60;;;;;;;;;;5056861;28;20029;-83
2023/05/16 06:25:09;;;;;;;21.08;13.60;;;;;;;;;;5043344;28;20100;-82
2023/05/16 06:27:34;;;;;;;19.67;12.55;;;;;;;;;;5037600;28;20029;-81
2023/05/16 06:29:59;;;;;;;19.52;12.30;;;;;;;;;;5038260;28;20024;-80
2023/05/16 06:32:25;;;;;;;18.63;12.70;;;;;;;;;;5036685;28;20029;-83
2023/05/16 06:34:50;;;;;;;20.65;13.10;;;;;;;;;;5027399;28;20037;-83
2023/05/16 06:37:16;;;;;;;24.48;13.15;;;;;;;;;;5032694;28;20052;-83
2023/05/16 06:39:41;;;;;;;19.33;12.40;;;;;;;;;;5028037;28;20528;-82
2023/05/16 06:42:06;;;;;;;24.25;13.18;;;;;;;;;;5035188;28;20033;-82
2023/05/16 06:44:32;;;;;;;20.83;13.38;;;;;;;;;;5040215;28;20085;-83
2023/05/16 06:46:57;;;;;;;25.38;13.57;;;;;;;;;;5039766;28;20091;-83
2023/05/16 06:49:23;;;;;;;21.75;13.32;;;;;;;;;;5036399;28;20021;-82
2023/05/16 06:51:48;;;;;;;24.00;14.63;;;;;;;;;;5039549;28;20077;-83
2023/05/16 06:54:13;;;;;;;19.88;13.02;;;;;;;;;;5040145;28;20013;-83
2023/05/16 06:56:39;;;;;;;21.13;13.73;;;;;;;;;;5050290;28;20027;-83
2023/05/16 06:59:04;;;;;;;22.60;13.75;;;;;;;;;;5033062;28;20032;-82
2023/05/16 07:01:30;;;;;;;21.75;13.57;;;;;;;;;;5038444;28;20060;-82
2023/05/16 07:03:55;;;;;;;20.98;13.13;;;;;;;;;;5036893;28;20153;-81
2023/05/16 07:06:20;;;;;;;22.65;13.85;;;;;;;;;;5040255;28;20074;-80
2023/05/16 07:08:46;;;;;;;27.60;14.57;;;;;;;;;;5044762;28;20051;-81
2023/05/16 07:11:11;;;;;;;21.30;13.95;;;;;;;;;;5044086;28;20036;-82
2023/05/16 07:13:37;;;;;;;25.30;14.93;;;;;;;;;;5037672;28;20037;-82
2023/05/16 07:16:02;;;;;;;24.23;14.75;;;;;;;;;;5029116;28;20396;-82
2023/05/16 07:18:28;;;;;;;22.67;14.98;;;;;;;;;;5031546;28;20049;-82
2023/05/16 07:20:53;;;;;;;23.20;15.35;;;;;;;;;;5040460;28;20027;-81
2023/05/16 07:23:18;;;;;;;30.25;16.52;;;;;;;;;;5032488;28;20072;-81
2023/05/16 07:25:44;;;;;;;24.48;14.77;;;;;;;;;;5034108;28;20084;-82
2023/05/16 07:28:09;;;;;;;24.55;15.18;;;;;;;;;;5033269;28;20117;-82
2023/05/16 07:30:34;;;;;;;25.33;14.82;;;;;;;;;;5031797;28;20146;-82
2023/05/16 07:33:00;;;;;;;22.45;13.73;;;;;;;;;;5034447;28;20480;-82
2023/05/16 07:35:25;;;;;;;22.70;13.80;;;;;;;;;;5033904;28;20030;-82
2023/05/16 07:37:51;;;;;;;23.38;14.13;;;;;;;;;;5034578;28;20385;-82
2023/05/16 07:40:17;;;;;;;20.38;13.40;;;;;;;;;;5044403;28;20560;-82
2023/05/16 07:42:43;;;;;;;20.52;14.63;;;;;;;;;;5036262;28;20040;-81
2023/05/16 07:45:08;;;;;;;24.77;14.38;;;;;;;;;;5034213;28;20088;-81
2023/05/16 07:47:34;;;;;;;22.45;13.73;;;;;;;;;;5032000;28;20029;-81
2023/05/16 07:50:00;;;;;;;23.70;14.05;;;;;;;;;;5032258;28;20348;-82
2023/05/16 07:52:25;;;;;;;22.08;14.43;;;;;;;;;;5032596;28;20050;-82
2023/05/16 07:54:50;;;;;;;21.23;14.75;;;;;;;;;;5033961;28;20104;-82
2023/05/16 07:57:16;;;;;;;21.75;14.70;;;;;;;;;;5027484;28;20041;-83
2023/05/16 07:59:43;;;;;;;27.67;15.38;;;;;;;;;;5036608;28;20486;-83
2023/05/16 08:02:09;;;;;;;21.45;14.98;;;;;;;;;;5029036;28;20033;-83
2023/05/16 08:04:35;;;;;;;29.95;13.88;;;;;;;;;;5029313;28;20029;-82
2023/05/16 08:07:00;;;;;;;19.98;14.23;;;;;;;;;;5031225;28;20053;-83
2023/05/16 08:09:26;;;;;;;24.77;15.27;;;;;;;;;;5032980;28;20033;-83
2023/05/16 08:11:51;;;;;;;23.25;14.48;;;;;;;;;;5036182;28;20108;-82
2023/05/16 08:14:17;;;;;;;25.73;14.98;;;;;;;;;;5033443;28;20021;-83
2023/05/16 08:16:42;;;;;;;23.13;14.73;;;;;;;;;;5032217;28;20044;-83
2023/05/16 08:19:08;;;;;;;23.67;14.40;;;;;;;;;;5034419;28;20038;-82
2023/05/16 08:21:33;;;;;;;19.23;13.10;;;;;;;;;;5031776;28;20048;-83
2023/05/16 08:23:58;;;;;;;18.40;13.73;;;;;;;;;;5033899;28;20034;-82
2023/05/16 08:26:24;;;;;;;21.10;13.85;;;;;;;;;;5029775;28;20065;-82
2023/05/16 08:28:49;;;;;;;20.50;13.98;;;;;;;;;;5032745;28;20037;-83
2023/05/16 08:31:14;;;;;;;23.58;14.35;;;;;;;;;;5031987;28;20117;-83
2023/05/16 08:33:40;;;;;;;20.58;13.43;;;;;;;;;;5033299;28;20087;-83
2023/05/16 08:36:05;;;;;;;24.20;13.45;;;;;;;;;;5032271;28;20048;-83
2023/05/16 08:38:30;;;;;;;20.15;13.52;;;;;;;;;;5038266;28;20056;-81
2023/05/16 08:40:56;;;;;;;19.00;13.82;;;;;;;;;;5030810;28;20120;-83
2023/05/16 08:43:22;;;;;;;25.70;14.65;;;;;;;;;;5028020;28;20042;-83
2023/05/16 08:45:48;;;;;;;21.65;13.95;;;;;;;;;;5032408;28;20120;-83
2023/05/16 08:48:15;;;;;;;21.17;14.45;;;;;;;;;;5030354;28;20502;-83
2023/05/16 08:50:42;;;;;;;21.48;14.48;;;;;;;;;;5030541;28;20025;-84
2023/05/16 08:53:09;;;;;;;21.88;14.93;;;;;;;;;;5026358;28;20052;-83
2023/05/16 08:55:35;;;;;;;26.92;16.25;;;;;;;;;;5043615;28;20044;-83
2023/05/16 08:58:01;;;;;;;26.00;15.18;;;;;;;;;;5034900;28;20041;-83
2023/05/16 09:00:27;;;;;;;21.73;15.63;;;;;;;;;;5038102;28;20025;-83
2023/05/16 09:02:53;;;;;;;22.10;15.23;;;;;;;;;;5032354;28;20071;-84
2023/05/16 09:05:18;;;;;;;25.58;17.27;;;;;;;;;;5025310;28;20045;-84
2023/05/16 09:07:44;;;;;;;25.85;17.35;;;;;;;;;;5028956;28;20403;-84
2023/05/16 09:10:11;;;;;;;27.88;17.00;;;;;;;;;;5033392;28;20034;-79
2023/05/16 09:12:37;;;;;;;27.42;17.88;;;;;;;;;;5049673;28;20033;-80
2023/05/16 09:15:04;;;;;;;28.27;18.58;;;;;;;;;;5035427;28;20033;-80
2023/05/16 09:17:51;;;;;;;32.33;18.60;;;;;;;;;;5067818;28;20052;-81
2023/05/16 09:20:18;;;;;;;26.65;18.08;;;;;;;;;;5034947;28;20089;-84
2023/05/16 09:23:10;;;;;;;26.73;18.30;;;;;;;;;;5029513;28;20406;-82
2023/05/16 09:25:36;;;;;;;27.73;17.92;;;;;;;;;;5027065;28;20069;-81
2023/05/16 09:28:01;;;;;;;27.90;17.58;;;;;;;;;;5033035;28;20067;-81
2023/05/16 09:30:30;;;;;;;28.33;18.05;;;;;;;;;;5033756;28;21003;-80
2023/05/16 09:32:55;;;;;;;30.48;19.13;;;;;;;;;;5037672;28;20053;-79
2023/05/16 09:35:22;;;;;;;27.70;19.10;;;;;;;;;;5035102;28;20041;-80
2023/05/16 09:37:48;;;;;;;31.25;20.13;;;;;;;;;;5033618;28;20033;-80
2023/05/16 09:40:15;;;;;;;27.33;20.08;;;;;;;;;;5033748;28;20026;-79
2023/05/16 09:42:42;;;;;;;29.70;20.40;;;;;;;;;;5034441;28;20040;-78
2023/05/16 09:45:11;;;;;;;40.90;21.90;;;;;;;;;;5034008;28;20033;-79
2023/05/16 09:47:44;;;;;;;33.00;20.70;;;;;;;;;;5036322;28;20030;-79
2023/05/16 09:50:10;;;;;;;35.08;21.23;;;;;;;;;;5037824;28;20110;-79
2023/05/16 09:52:36;;;;;;;35.88;21.75;;;;;;;;;;5036306;28;20030;-79
2023/05/16 09:55:05;;;;;;;32.65;22.17;;;;;;;;;;5036079;28;20060;-80
2023/05/16 09:57:30;;;;;;;33.35;21.65;;;;;;;;;;5053047;28;20045;-79
2023/05/16 09:59:58;;;;;;;38.42;21.30;;;;;;;;;;5036714;28;20025;-79
2023/05/16 10:02:24;;;;;;;32.38;21.60;;;;;;;;;;5037051;28;20044;-79
2023/05/16 10:04:50;;;;;;;29.00;19.98;;;;;;;;;;5035512;28;20094;-79
2023/05/16 10:07:15;;;;;;;29.38;20.52;;;;;;;;;;5035313;28;20033;-79
2023/05/16 10:09:42;;;;;;;32.40;21.40;;;;;;;;;;5035970;28;20033;-78
2023/05/16 10:12:11;;;;;;;35.33;20.50;;;;;;;;;;5035614;28;20025;-79
2023/05/16 10:14:38;;;;;;;31.13;20.83;;;;;;;;;;5053243;28;20026;-79
2023/05/16 10:17:09;;;;;;;34.33;21.23;;;;;;;;;;5038625;28;20029;-80
2023/05/16 10:19:37;;;;;;;32.08;20.85;;;;;;;;;;5056675;28;20440;-79
2023/05/16 10:22:05;;;;;;;37.45;22.38;;;;;;;;;;5040033;28;20049;-79
2023/05/16 10:24:45;;;;;;;35.60;22.85;;;;;;;;;;5042176;28;20034;-79
2023/05/16 10:27:11;;;;;;;31.38;21.25;;;;;;;;;;5040059;28;20021;-79
2023/05/16 10:29:38;;;;;;;32.03;21.42;;;;;;;;;;5041190;28;20049;-80
2023/05/16 10:32:05;;;;;;;33.90;21.80;;;;;;;;;;5039859;28;20063;-80
2023/05/16 10:34:31;;;;;;;32.38;21.65;;;;;;;;;;5039847;28;20034;-80
2023/05/16 10:36:57;;;;;;;33.90;21.98;;;;;;;;;;5039942;28;20046;-79
2023/05/16 10:39:23;;;;;;;30.80;22.88;;;;;;;;;;5039832;28;20037;-80
2023/05/16 10:41:49;;;;;;;36.85;22.52;;;;;;;;;;5039498;28;20470;-79
2023/05/16 10:44:15;;;;;;;38.38;22.80;;;;;;;;;;5040187;28;20037;-79
2023/05/16 10:46:40;;;;;;;33.20;23.05;;;;;;;;;;5040555;28;20045;-79
2023/05/16 10:49:19;;;;;;;40.20;23.65;;;;;;;;;;5040630;28;20038;-79
2023/05/16 10:51:44;;;;;;;35.38;21.67;;;;;;;;;;5040508;28;20050;-79
2023/05/16 10:54:12;;;;;;;36.25;24.92;;;;;;;;;;5040378;28;20091;-78
2023/05/16 10:56:37;;;;;;;38.60;24.52;;;;;;;;;;5040890;28;20085;-79
2023/05/16 10:59:03;;;;;;;42.80;23.90;;;;;;;;;;5039621;28;20042;-78
2023/05/16 11:01:31;;;;;;;36.40;23.73;;;;;;;;;;5038465;28;20034;-78
2023/05/16 11:03:59;;;;;;;34.63;23.48;;;;;;;;;;5040002;28;20508;-79
2023/05/16 11:06:25;;;;;;;39.40;24.50;;;;;;;;;;5040317;28;20044;-79
2023/05/16 11:09:08;;;;;;;37.58;26.02;;;;;;;;;;5056063;28;20017;-80
2023/05/16 11:11:38;;;;;;;33.72;23.20;;;;;;;;;;5055284;28;20323;-81
2023/05/16 11:14:03;;;;;;;32.80;22.95;;;;;;;;;;5039136;28;20041;-80
2023/05/16 11:16:29;;;;;;;33.20;22.20;;;;;;;;;;5038860;28;20057;-79
2023/05/16 11:19:03;;;;;;;35.10;22.83;;;;;;;;;;5038141;28;20124;-81
2023/05/16 11:22:03;;;;;;;30.10;21.60;;;;;;;;;;5047713;28;20092;-78
2023/05/16 11:24:30;;;;;;;26.05;18.60;;;;;;;;;;5054055;28;20042;-78
2023/05/16 11:26:58;;;;;;;27.88;19.88;;;;;;;;;;5041759;28;20479;-80
2023/05/16 11:29:24;;;;;;;24.55;16.98;;;;;;;;;;5046434;28;20043;-80
2023/05/16 11:31:49;;;;;;;23.75;16.63;;;;;;;;;;5042524;28;20033;-79
2023/05/16 11:34:15;;;;;;;22.38;16.42;;;;;;;;;;5040217;28;20068;-80
2023/05/16 11:36:41;;;;;;;24.33;16.40;;;;;;;;;;5043202;28;20056;-80
2023/05/16 11:39:08;;;;;;;17.92;14.10;;;;;;;;;;5045997;28;20021;-80
2023/05/16 11:41:33;;;;;;;20.90;15.23;;;;;;;;;;5044273;28;20010;-79
2023/05/16 11:43:59;;;;;;;24.00;14.60;;;;;;;;;;5047373;28;20037;-80
2023/05/16 11:46:26;;;;;;;26.52;16.10;;;;;;;;;;5045719;28;20038;-79
2023/05/16 11:48:51;;;;;;;26.83;15.45;;;;;;;;;;5038050;28;20171;-79
2023/05/16 11:51:19;;;;;;;18.75;13.93;;;;;;;;;;5038450;28;20022;-80
2023/05/16 11:53:45;;;;;;;23.13;16.30;;;;;;;;;;5040153;28;20108;-79
2023/05/16 11:56:11;;;;;;;26.02;17.70;;;;;;;;;;5038111;28;20037;-79
2023/05/16 11:58:37;;;;;;;23.60;16.88;;;;;;;;;;5040574;28;20039;-79
2023/05/16 12:01:04;;;;;;;20.23;15.80;;;;;;;;;;5039685;28;20044;-80
2023/05/16 12:03:32;;;;;;;21.38;15.40;;;;;;;;;;5034256;28;20096;-78
2023/05/16 12:05:57;;;;;;;25.15;16.70;;;;;;;;;;5023146;28;20056;-77
2023/05/16 12:08:24;;;;;;;34.75;16.80;;;;;;;;;;5023419;28;20099;-77
2023/05/16 12:10:50;;;;;;;26.50;17.13;;;;;;;;;;5024696;28;20439;-78
2023/05/16 12:13:17;;;;;;;22.50;16.10;;;;;;;;;;5024317;28;20113;-78
2023/05/16 12:15:42;;;;;;;21.80;14.77;;;;;;;;;;5024014;28;20030;-78
2023/05/16 12:18:09;;;;;;;18.67;14.60;;;;;;;;;;5023382;28;20032;-78
2023/05/16 12:20:34;;;;;;;17.92;14.48;;;;;;;;;;5023459;28;20025;-78
2023/05/16 12:23:00;;;;;;;21.38;15.77;;;;;;;;;;5023901;28;20033;-78
2023/05/16 12:25:27;;;;;;;19.85;15.05;;;;;;;;;;5024188;28;20475;-78
2023/05/16 12:28:00;;;;;;;21.50;16.55;;;;;;;;;;5023345;28;20033;-78
2023/05/16 12:30:27;;;;;;;21.67;16.50;;;;;;;;;;5023477;28;20030;-78
2023/05/16 12:32:56;;;;;;;22.55;15.98;;;;;;;;;;5022319;28;20396;-78
2023/05/16 12:35:23;;;;;;;22.35;16.15;;;;;;;;;;5023975;28;20034;-78
2023/05/16 12:37:50;;;;;;;21.48;16.02;;;;;;;;;;5023710;28;20034;-79
2023/05/16 12:40:16;;;;;;;18.95;14.77;;;;;;;;;;5023162;28;20040;-78
2023/05/16 12:42:43;;;;;;;20.70;14.70;;;;;;;;;;5022497;28;20033;-78
2023/05/16 12:45:16;;;;;;;13.88;11.82;;;;;;;;;;5024372;28;20116;-78
2023/05/16 12:47:42;;;;;;;14.48;12.00;;;;;;;;;;5024275;28;20036;-78
2023/05/16 12:50:13;;;;;;;15.38;11.13;;;;;;;;;;5023704;28;20037;-78
2023/05/16 12:52:46;;;;;;;18.38;12.05;;;;;;;;;;5022977;28;20037;-78
2023/05/16 12:55:11;;;;;;;14.97;10.67;;;;;;;;;;5023573;28;20041;-78
2023/05/16 12:57:37;;;;;;;13.40;11.50;;;;;;;;;;5022253;28;20021;-78
2023/05/16 13:00:02;;;;;;;12.20;10.73;;;;;;;;;;5023241;28;20018;-78
2023/05/16 13:02:27;;;;;;;19.50;12.25;;;;;;;;;;5024078;28;20073;-78
2023/05/16 13:04:56;;;;;;;15.57;11.88;;;;;;;;;;5022233;28;20056;-79
2023/05/16 13:07:21;;;;;;;13.55;11.70;;;;;;;;;;5023589;28;20358;-79
2023/05/16 13:09:47;;;;;;;13.07;10.82;;;;;;;;;;5025793;28;20026;-79
2023/05/16 13:12:13;;;;;;;17.55;12.55;;;;;;;;;;5026390;28;20414;-78
2023/05/16 13:14:38;;;;;;;20.45;14.93;;;;;;;;;;5032319;28;20026;-79
2023/05/16 13:17:03;;;;;;;18.85;14.82;;;;;;;;;;5037837;28;20029;-80
2023/05/16 13:19:30;;;;;;;20.33;15.48;;;;;;;;;;5036238;28;20049;-79
2023/05/16 13:21:55;;;;;;;23.05;14.88;;;;;;;;;;5035714;28;20030;-80
2023/05/16 13:24:21;;;;;;;19.45;13.40;;;;;;;;;;5035555;28;20049;-80
2023/05/16 13:26:46;;;;;;;14.13;12.05;;;;;;;;;;5037165;28;20397;-80
2023/05/16 13:29:12;;;;;;;19.25;11.73;;;;;;;;;;5036390;28;20120;-79
2023/05/16 13:31:37;;;;;;;16.73;13.60;;;;;;;;;;5035210;28;20088;-80
2023/05/16 13:34:03;;;;;;;17.20;12.27;;;;;;;;;;5036711;28;20033;-80
2023/05/16 13:36:28;;;;;;;20.60;14.23;;;;;;;;;;5020119;28;20045;-79
2023/05/16 13:38:53;;;;;;;19.23;13.00;;;;;;;;;;5021815;28;20022;-77
2023/05/16 13:41:18;;;;;;;19.60;13.38;;;;;;;;;;5050363;28;20056;-78
2023/05/16 13:43:44;;;;;;;21.45;14.05;;;;;;;;;;5036430;28;20030;-79
2023/05/16 13:46:09;;;;;;;19.77;13.02;;;;;;;;;;5037272;28;20033;-79
2023/05/16 13:48:34;;;;;;;14.63;11.60;;;;;;;;;;5060915;28;20370;-79
2023/05/16 13:51:00;;;;;;;13.18;10.98;;;;;;;;;;5015752;28;20025;-79
2023/05/16 13:53:25;;;;;;;15.25;11.50;;;;;;;;;;5017293;28;20523;-79
2023/05/16 13:55:51;;;;;;;18.63;11.07;;;;;;;;;;5018056;28;20550;-80
2023/05/16 13:58:16;;;;;;;16.45;12.57;;;;;;;;;;5016719;28;20062;-79
2023/05/16 14:00:41;;;;;;;15.95;12.00;;;;;;;;;;5016559;28;20551;-80
2023/05/16 14:03:07;;;;;;;13.55;11.27;;;;;;;;;;5015950;28;20038;-79
2023/05/16 14:05:32;;;;;;;17.15;11.07;;;;;;;;;;5016673;28;20025;-80
2023/05/16 14:07:57;;;;;;;15.10;11.13;;;;;;;;;;5016629;28;20030;-79
2023/05/16 14:10:23;;;;;;;16.20;11.25;;;;;;;;;;5017439;28;20065;-78
2023/05/16 14:12:48;;;;;;;18.17;11.75;;;;;;;;;;5033432;28;20434;-80
2023/05/16 14:15:13;;;;;;;18.73;12.88;;;;;;;;;;5037100;28;20018;-77
2023/05/16 14:17:39;;;;;;;19.83;12.70;;;;;;;;;;5037353;28;20022;-78